sensor_id;sensor_type;location;lat;lon;timestamp;temperature;humidity
7688;DHT22;30781;48.154;11.554;2022-07-17T00:01:50;19.20;51.70
7688;DHT22;30781;48.154;11.554;2022-07-17T00:04:17;19.20;51.80
7688;DHT22;30781;48.154;11.554;2022-07-17T00:06:45;19.10;51.90
7688;DHT22;30781;48.154;11.554;2022-07-17T00:09:12;19.10;52.10
7688;DHT22;30781;48.154;11.554;2022-07-17T00:11:39;19.10;52.20
7688;DHT22;30781;48.154;11.554;2022-07-17T00:14:07;19.10;52.20
7688;DHT22;30781;48.154;11.554;2022-07-17T00:16:36;19.00;52.40
7688;DHT22;30781;48.154;11.554;2022-07-17T00:19:03;19.10;52.50
7688;DHT22;30781;48.154;11.554;2022-07-17T00:21:30;19.00;52.50
7688;DHT22;30781;48.154;11.554;2022-07-17T00:23:58;19.00;52.60
7688;DHT22;30781;48.154;11.554;2022-07-17T00:26:25;19.00;52.70
7688;DHT22;30781;48.154;11.554;2022-07-17T00:28:52;18.90;52.70
7688;DHT22;30781;48.154;11.554;2022-07-17T00:31:20;18.90;52.70
7688;DHT22;30781;48.154;11.554;2022-07-17T00:33:48;18.90;52.80
7688;DHT22;30781;48.154;11.554;2022-07-17T00:36:16;18.80;52.80
7688;DHT22;30781;48.154;11.554;2022-07-17T00:38:43;18.80;53.00
7688;DHT22;30781;48.154;11.554;2022-07-17T00:41:13;18.80;53.30
7688;DHT22;30781;48.154;11.554;2022-07-17T00:43:41;18.70;53.40
7688;DHT22;30781;48.154;11.554;2022-07-17T00:46:08;18.80;53.70
7688;DHT22;30781;48.154;11.554;2022-07-17T00:48:35;18.70;53.90
7688;DHT22;30781;48.154;11.554;2022-07-17T00:51:19;18.70;54.00
7688;DHT22;30781;48.154;11.554;2022-07-17T00:53:47;18.70;54.50
7688;DHT22;30781;48.154;11.554;2022-07-17T00:56:15;18.60;54.90
7688;DHT22;30781;48.154;11.554;2022-07-17T00:58:44;18.60;55.20
7688;DHT22;30781;48.154;11.554;2022-07-17T01:01:11;18.60;55.40
7688;DHT22;30781;48.154;11.554;2022-07-17T01:03:39;18.60;56.10
7688;DHT22;30781;48.154;11.554;2022-07-17T01:06:07;18.50;56.00
7688;DHT22;30781;48.154;11.554;2022-07-17T01:08:37;18.40;56.30
7688;DHT22;30781;48.154;11.554;2022-07-17T01:11:07;18.50;56.70
7688;DHT22;30781;48.154;11.554;2022-07-17T01:13:35;18.40;56.70
7688;DHT22;30781;48.154;11.554;2022-07-17T01:16:03;18.40;56.70
7688;DHT22;30781;48.154;11.554;2022-07-17T01:18:30;18.30;56.80
7688;DHT22;30781;48.154;11.554;2022-07-17T01:21:04;18.30;56.80
7688;DHT22;30781;48.154;11.554;2022-07-17T01:23:31;18.30;57.10
7688;DHT22;30781;48.154;11.554;2022-07-17T01:25:59;18.30;57.10
7688;DHT22;30781;48.154;11.554;2022-07-17T01:28:26;18.20;56.80
7688;DHT22;30781;48.154;11.554;2022-07-17T01:30:53;18.20;57.00
7688;DHT22;30781;48.154;11.554;2022-07-17T01:33:21;18.20;57.00
7688;DHT22;30781;48.154;11.554;2022-07-17T01:35:49;18.10;57.00
7688;DHT22;30781;48.154;11.554;2022-07-17T01:38:18;18.10;57.00
7688;DHT22;30781;48.154;11.554;2022-07-17T01:40:45;18.10;57.20
7688;DHT22;30781;48.154;11.554;2022-07-17T01:43:12;18.00;57.20
7688;DHT22;30781;48.154;11.554;2022-07-17T01:45:40;18.00;57.40
7688;DHT22;30781;48.154;11.554;2022-07-17T01:48:07;18.00;57.50
7688;DHT22;30781;48.154;11.554;2022-07-17T01:50:34;17.90;57.60
7688;DHT22;30781;48.154;11.554;2022-07-17T01:53:02;17.90;57.70
7688;DHT22;30781;48.154;11.554;2022-07-17T01:55:30;17.90;57.80
7688;DHT22;30781;48.154;11.554;2022-07-17T01:57:58;17.80;57.80
7688;DHT22;30781;48.154;11.554;2022-07-17T02:00:25;17.80;57.90
7688;DHT22;30781;48.154;11.554;2022-07-17T02:02:52;17.80;58.00
7688;DHT22;30781;48.154;11.554;2022-07-17T02:05:20;17.80;58.20
7688;DHT22;30781;48.154;11.554;2022-07-17T02:07:47;17.70;58.20
7688;DHT22;30781;48.154;11.554;2022-07-17T02:10:14;17.70;58.30
7688;DHT22;30781;48.154;11.554;2022-07-17T02:12:44;17.70;58.50
7688;DHT22;30781;48.154;11.554;2022-07-17T02:15:12;17.70;58.60
7688;DHT22;30781;48.154;11.554;2022-07-17T02:17:40;17.70;58.70
7688;DHT22;30781;48.154;11.554;2022-07-17T02:20:09;17.60;58.80
7688;DHT22;30781;48.154;11.554;2022-07-17T02:22:37;17.60;58.90
7688;DHT22;30781;48.154;11.554;2022-07-17T02:25:06;17.60;59.10
7688;DHT22;30781;48.154;11.554;2022-07-17T02:27:34;17.50;59.10
7688;DHT22;30781;48.154;11.554;2022-07-17T02:30:03;17.50;59.20
7688;DHT22;30781;48.154;11.554;2022-07-17T02:32:31;17.50;59.40
7688;DHT22;30781;48.154;11.554;2022-07-17T02:34:58;17.50;59.50
7688;DHT22;30781;48.154;11.554;2022-07-17T02:37:26;17.50;59.60
7688;DHT22;30781;48.154;11.554;2022-07-17T02:39:53;17.40;59.60
7688;DHT22;30781;48.154;11.554;2022-07-17T02:42:21;17.40;59.70
7688;DHT22;30781;48.154;11.554;2022-07-17T02:44:49;17.30;59.80
7688;DHT22;30781;48.154;11.554;2022-07-17T02:47:22;17.30;59.80
7688;DHT22;30781;48.154;11.554;2022-07-17T02:49:50;17.30;60.00
7688;DHT22;30781;48.154;11.554;2022-07-17T02:52:17;17.30;60.00
7688;DHT22;30781;48.154;11.554;2022-07-17T02:54:45;17.30;60.00
7688;DHT22;30781;48.154;11.554;2022-07-17T02:57:13;17.30;60.00
7688;DHT22;30781;48.154;11.554;2022-07-17T02:59:40;17.20;59.90
7688;DHT22;30781;48.154;11.554;2022-07-17T03:02:08;17.20;59.90
7688;DHT22;30781;48.154;11.554;2022-07-17T03:04:37;17.20;59.90
7688;DHT22;30781;48.154;11.554;2022-07-17T03:07:04;17.20;60.00
7688;DHT22;30781;48.154;11.554;2022-07-17T03:09:32;17.10;60.30
7688;DHT22;30781;48.154;11.554;2022-07-17T03:11:59;17.10;60.80
7688;DHT22;30781;48.154;11.554;2022-07-17T03:14:26;17.10;60.90
7688;DHT22;30781;48.154;11.554;2022-07-17T03:16:54;17.10;61.10
7688;DHT22;30781;48.154;11.554;2022-07-17T03:19:21;17.10;60.80
7688;DHT22;30781;48.154;11.554;2022-07-17T03:21:50;17.10;60.80
7688;DHT22;30781;48.154;11.554;2022-07-17T03:24:17;17.00;60.90
7688;DHT22;30781;48.154;11.554;2022-07-17T03:26:44;17.00;60.90
7688;DHT22;30781;48.154;11.554;2022-07-17T03:29:12;17.00;61.10
7688;DHT22;30781;48.154;11.554;2022-07-17T03:31:43;17.00;61.60
7688;DHT22;30781;48.154;11.554;2022-07-17T03:34:10;16.90;62.00
7688;DHT22;30781;48.154;11.554;2022-07-17T03:36:37;16.90;62.10
7688;DHT22;30781;48.154;11.554;2022-07-17T03:39:06;16.90;62.30
7688;DHT22;30781;48.154;11.554;2022-07-17T03:41:34;16.90;62.60
7688;DHT22;30781;48.154;11.554;2022-07-17T03:44:02;16.90;62.70
7688;DHT22;30781;48.154;11.554;2022-07-17T03:46:29;16.80;62.70
7688;DHT22;30781;48.154;11.554;2022-07-17T03:48:56;16.90;62.80
7688;DHT22;30781;48.154;11.554;2022-07-17T03:51:24;16.80;62.60
7688;DHT22;30781;48.154;11.554;2022-07-17T03:53:51;16.80;69.10
7688;DHT22;30781;48.154;11.554;2022-07-17T03:56:20;16.80;70.10
7688;DHT22;30781;48.154;11.554;2022-07-17T03:58:47;16.90;66.90
7688;DHT22;30781;48.154;11.554;2022-07-17T04:01:15;16.80;66.20
7688;DHT22;30781;48.154;11.554;2022-07-17T04:03:42;16.80;65.80
7688;DHT22;30781;48.154;11.554;2022-07-17T04:06:09;16.80;65.30
7688;DHT22;30781;48.154;11.554;2022-07-17T04:08:37;16.90;64.40
7688;DHT22;30781;48.154;11.554;2022-07-17T04:11:04;16.90;64.10
7688;DHT22;30781;48.154;11.554;2022-07-17T04:13:33;16.90;64.40
7688;DHT22;30781;48.154;11.554;2022-07-17T04:16:01;16.90;64.10
7688;DHT22;30781;48.154;11.554;2022-07-17T04:18:29;16.90;63.20
7688;DHT22;30781;48.154;11.554;2022-07-17T04:20:59;16.90;63.30
7688;DHT22;30781;48.154;11.554;2022-07-17T04:23:27;17.00;63.50
7688;DHT22;30781;48.154;11.554;2022-07-17T04:25:54;17.00;63.60
7688;DHT22;30781;48.154;11.554;2022-07-17T04:28:22;16.90;62.30
7688;DHT22;30781;48.154;11.554;2022-07-17T04:30:51;16.90;62.60
7688;DHT22;30781;48.154;11.554;2022-07-17T04:33:18;17.00;63.80
7688;DHT22;30781;48.154;11.554;2022-07-17T04:35:45;16.90;64.70
7688;DHT22;30781;48.154;11.554;2022-07-17T04:38:13;17.00;64.90
7688;DHT22;30781;48.154;11.554;2022-07-17T04:40:40;17.10;63.70
7688;DHT22;30781;48.154;11.554;2022-07-17T04:43:08;17.10;62.00
7688;DHT22;30781;48.154;11.554;2022-07-17T04:45:35;17.10;61.00
7688;DHT22;30781;48.154;11.554;2022-07-17T04:48:04;17.10;60.80
7688;DHT22;30781;48.154;11.554;2022-07-17T04:50:32;17.20;61.00
7688;DHT22;30781;48.154;11.554;2022-07-17T04:52:59;17.20;60.30
7688;DHT22;30781;48.154;11.554;2022-07-17T04:55:27;17.20;60.10
7688;DHT22;30781;48.154;11.554;2022-07-17T04:57:55;17.30;60.00
7688;DHT22;30781;48.154;11.554;2022-07-17T05:00:22;17.30;59.70
7688;DHT22;30781;48.154;11.554;2022-07-17T05:02:49;17.30;60.00
7688;DHT22;30781;48.154;11.554;2022-07-17T05:05:18;17.60;61.30
7688;DHT22;30781;48.154;11.554;2022-07-17T05:07:45;17.40;60.70
7688;DHT22;30781;48.154;11.554;2022-07-17T05:10:14;17.40;60.80
7688;DHT22;30781;48.154;11.554;2022-07-17T05:12:41;17.50;59.70
7688;DHT22;30781;48.154;11.554;2022-07-17T05:15:08;17.60;58.80
7688;DHT22;30781;48.154;11.554;2022-07-17T05:17:36;17.60;58.60
7688;DHT22;30781;48.154;11.554;2022-07-17T05:20:04;17.50;58.90
7688;DHT22;30781;48.154;11.554;2022-07-17T05:22:33;17.60;58.90
7688;DHT22;30781;48.154;11.554;2022-07-17T05:25:01;17.80;59.60
7688;DHT22;30781;48.154;11.554;2022-07-17T05:27:28;17.70;59.30
7688;DHT22;30781;48.154;11.554;2022-07-17T05:29:56;17.80;59.90
7688;DHT22;30781;48.154;11.554;2022-07-17T05:32:23;17.80;59.60
7688;DHT22;30781;48.154;11.554;2022-07-17T05:34:50;17.90;60.00
7688;DHT22;30781;48.154;11.554;2022-07-17T05:37:18;18.00;59.90
7688;DHT22;30781;48.154;11.554;2022-07-17T05:39:46;18.00;59.90
7688;DHT22;30781;48.154;11.554;2022-07-17T05:42:14;18.10;59.60
7688;DHT22;30781;48.154;11.554;2022-07-17T05:44:41;18.20;59.40
7688;DHT22;30781;48.154;11.554;2022-07-17T05:47:08;18.30;59.00
7688;DHT22;30781;48.154;11.554;2022-07-17T05:49:36;18.30;58.80
7688;DHT22;30781;48.154;11.554;2022-07-17T05:52:03;18.40;59.50
7688;DHT22;30781;48.154;11.554;2022-07-17T05:54:31;18.40;58.00
7688;DHT22;30781;48.154;11.554;2022-07-17T05:57:01;18.50;59.00
7688;DHT22;30781;48.154;11.554;2022-07-17T05:59:28;18.60;59.00
7688;DHT22;30781;48.154;11.554;2022-07-17T06:01:55;18.60;58.90
7688;DHT22;30781;48.154;11.554;2022-07-17T06:04:23;18.70;58.90
7688;DHT22;30781;48.154;11.554;2022-07-17T06:06:50;18.70;58.50
7688;DHT22;30781;48.154;11.554;2022-07-17T06:09:17;18.80;58.90
7688;DHT22;30781;48.154;11.554;2022-07-17T06:11:45;18.90;58.70
7688;DHT22;30781;48.154;11.554;2022-07-17T06:14:14;18.90;58.90
7688;DHT22;30781;48.154;11.554;2022-07-17T06:16:41;19.10;58.00
7688;DHT22;30781;48.154;11.554;2022-07-17T06:19:08;19.30;59.00
7688;DHT22;30781;48.154;11.554;2022-07-17T06:21:36;19.80;57.00
7688;DHT22;30781;48.154;11.554;2022-07-17T06:24:03;20.70;55.50
7688;DHT22;30781;48.154;11.554;2022-07-17T06:26:31;21.90;54.00
7688;DHT22;30781;48.154;11.554;2022-07-17T06:28:58;23.10;51.70
7688;DHT22;30781;48.154;11.554;2022-07-17T06:31:27;24.40;50.00
7688;DHT22;30781;48.154;11.554;2022-07-17T06:33:54;25.50;47.90
7688;DHT22;30781;48.154;11.554;2022-07-17T06:36:22;26.60;46.00
7688;DHT22;30781;48.154;11.554;2022-07-17T06:38:49;27.60;44.00
7688;DHT22;30781;48.154;11.554;2022-07-17T06:41:16;28.60;41.80
7688;DHT22;30781;48.154;11.554;2022-07-17T06:43:44;29.50;40.00
7688;DHT22;30781;48.154;11.554;2022-07-17T06:46:11;30.30;38.00
7688;DHT22;30781;48.154;11.554;2022-07-17T06:48:40;31.20;36.20
7688;DHT22;30781;48.154;11.554;2022-07-17T06:51:07;31.90;34.90
7688;DHT22;30781;48.154;11.554;2022-07-17T06:53:34;32.50;33.80
7688;DHT22;30781;48.154;11.554;2022-07-17T06:56:02;33.00;32.20
7688;DHT22;30781;48.154;11.554;2022-07-17T06:58:29;33.50;31.40
7688;DHT22;30781;48.154;11.554;2022-07-17T07:00:57;34.10;31.00
7688;DHT22;30781;48.154;11.554;2022-07-17T07:03:24;34.50;30.00
7688;DHT22;30781;48.154;11.554;2022-07-17T07:05:53;35.00;29.30
7688;DHT22;30781;48.154;11.554;2022-07-17T07:08:21;35.50;28.80
7688;DHT22;30781;48.154;11.554;2022-07-17T07:10:49;36.00;28.40
7688;DHT22;30781;48.154;11.554;2022-07-17T07:13:17;36.20;27.40
7688;DHT22;30781;48.154;11.554;2022-07-17T07:15:44;36.30;27.40
7688;DHT22;30781;48.154;11.554;2022-07-17T07:18:11;36.40;27.20
7688;DHT22;30781;48.154;11.554;2022-07-17T07:20:39;36.70;26.50
7688;DHT22;30781;48.154;11.554;2022-07-17T07:23:07;36.90;26.50
7688;DHT22;30781;48.154;11.554;2022-07-17T07:25:35;37.00;26.40
7688;DHT22;30781;48.154;11.554;2022-07-17T07:28:03;37.20;26.20
7688;DHT22;30781;48.154;11.554;2022-07-17T07:30:31;37.50;25.60
7688;DHT22;30781;48.154;11.554;2022-07-17T07:32:59;37.80;24.90
7688;DHT22;30781;48.154;11.554;2022-07-17T07:35:26;37.80;25.00
7688;DHT22;30781;48.154;11.554;2022-07-17T07:37:54;37.90;24.60
7688;DHT22;30781;48.154;11.554;2022-07-17T07:40:23;38.10;24.60
7688;DHT22;30781;48.154;11.554;2022-07-17T07:42:50;38.20;24.40
7688;DHT22;30781;48.154;11.554;2022-07-17T07:45:17;38.40;23.90
7688;DHT22;30781;48.154;11.554;2022-07-17T07:47:46;38.20;23.70
7688;DHT22;30781;48.154;11.554;2022-07-17T07:50:14;38.10;24.00
7688;DHT22;30781;48.154;11.554;2022-07-17T07:52:42;38.10;23.90
7688;DHT22;30781;48.154;11.554;2022-07-17T07:55:11;38.10;23.70
7688;DHT22;30781;48.154;11.554;2022-07-17T07:57:40;38.10;23.60
7688;DHT22;30781;48.154;11.554;2022-07-17T08:00:09;38.00;23.80
7688;DHT22;30781;48.154;11.554;2022-07-17T08:02:37;38.00;23.70
7688;DHT22;30781;48.154;11.554;2022-07-17T08:05:05;38.10;23.30
7688;DHT22;30781;48.154;11.554;2022-07-17T08:07:35;38.10;23.30
7688;DHT22;30781;48.154;11.554;2022-07-17T08:10:03;38.20;23.20
7688;DHT22;30781;48.154;11.554;2022-07-17T08:12:30;38.20;23.40
7688;DHT22;30781;48.154;11.554;2022-07-17T08:14:59;38.30;23.10
7688;DHT22;30781;48.154;11.554;2022-07-17T08:17:26;38.00;22.90
7688;DHT22;30781;48.154;11.554;2022-07-17T08:19:54;37.70;23.50
7688;DHT22;30781;48.154;11.554;2022-07-17T08:22:21;37.70;23.00
7688;DHT22;30781;48.154;11.554;2022-07-17T08:24:48;37.80;22.50
7688;DHT22;30781;48.154;11.554;2022-07-17T08:27:16;38.10;23.10
7688;DHT22;30781;48.154;11.554;2022-07-17T08:29:43;38.30;23.00
7688;DHT22;30781;48.154;11.554;2022-07-17T08:32:12;38.50;21.80
7688;DHT22;30781;48.154;11.554;2022-07-17T08:34:39;38.50;21.60
7688;DHT22;30781;48.154;11.554;2022-07-17T08:37:07;38.40;22.20
7688;DHT22;30781;48.154;11.554;2022-07-17T08:39:34;38.60;22.20
7688;DHT22;30781;48.154;11.554;2022-07-17T08:42:02;38.60;22.30
7688;DHT22;30781;48.154;11.554;2022-07-17T08:44:29;38.60;22.30
7688;DHT22;30781;48.154;11.554;2022-07-17T08:46:57;38.50;22.10
7688;DHT22;30781;48.154;11.554;2022-07-17T08:49:26;38.50;22.40
7688;DHT22;30781;48.154;11.554;2022-07-17T08:51:55;38.50;22.70
7688;DHT22;30781;48.154;11.554;2022-07-17T08:54:22;38.40;22.20
7688;DHT22;30781;48.154;11.554;2022-07-17T08:56:50;38.10;22.30
7688;DHT22;30781;48.154;11.554;2022-07-17T08:59:17;38.10;22.70
7688;DHT22;30781;48.154;11.554;2022-07-17T09:01:44;38.10;22.20
7688;DHT22;30781;48.154;11.554;2022-07-17T09:04:12;37.60;22.60
7688;DHT22;30781;48.154;11.554;2022-07-17T09:06:41;37.00;23.50
7688;DHT22;30781;48.154;11.554;2022-07-17T09:09:09;36.60;23.30
7688;DHT22;30781;48.154;11.554;2022-07-17T09:11:45;36.20;23.80
7688;DHT22;30781;48.154;11.554;2022-07-17T09:14:13;36.10;23.60
7688;DHT22;30781;48.154;11.554;2022-07-17T09:16:52;36.10;23.80
7688;DHT22;30781;48.154;11.554;2022-07-17T09:19:30;35.90;24.00
7688;DHT22;30781;48.154;11.554;2022-07-17T09:22:10;35.60;24.10
7688;DHT22;30781;48.154;11.554;2022-07-17T09:24:43;35.30;24.20
7688;DHT22;30781;48.154;11.554;2022-07-17T09:27:12;35.30;24.40
7688;DHT22;30781;48.154;11.554;2022-07-17T09:29:53;35.30;24.40
7688;DHT22;30781;48.154;11.554;2022-07-17T09:32:22;35.30;24.00
7688;DHT22;30781;48.154;11.554;2022-07-17T09:34:51;35.30;24.50
7688;DHT22;30781;48.154;11.554;2022-07-17T09:37:21;35.00;24.90
7688;DHT22;30781;48.154;11.554;2022-07-17T09:39:49;34.60;25.20
7688;DHT22;30781;48.154;11.554;2022-07-17T09:42:24;34.20;25.70
7688;DHT22;30781;48.154;11.554;2022-07-17T09:44:59;33.40;25.80
7688;DHT22;30781;48.154;11.554;2022-07-17T09:47:28;32.70;26.30
7688;DHT22;30781;48.154;11.554;2022-07-17T09:49:57;31.90;26.70
7688;DHT22;30781;48.154;11.554;2022-07-17T09:52:29;31.20;27.10
7688;DHT22;30781;48.154;11.554;2022-07-17T09:54:58;30.70;27.90
7688;DHT22;30781;48.154;11.554;2022-07-17T09:57:28;30.20;29.00
7688;DHT22;30781;48.154;11.554;2022-07-17T09:59:58;29.70;29.40
7688;DHT22;30781;48.154;11.554;2022-07-17T10:02:26;29.30;29.90
7688;DHT22;30781;48.154;11.554;2022-07-17T10:04:53;28.90;30.00
7688;DHT22;30781;48.154;11.554;2022-07-17T10:07:21;28.60;30.50
7688;DHT22;30781;48.154;11.554;2022-07-17T10:09:50;28.30;31.00
7688;DHT22;30781;48.154;11.554;2022-07-17T10:12:18;28.00;32.00
7688;DHT22;30781;48.154;11.554;2022-07-17T10:14:47;27.70;32.50
7688;DHT22;30781;48.154;11.554;2022-07-17T10:17:20;27.40;32.80
7688;DHT22;30781;48.154;11.554;2022-07-17T10:19:52;27.40;32.90
7688;DHT22;30781;48.154;11.554;2022-07-17T10:22:20;27.20;33.20
7688;DHT22;30781;48.154;11.554;2022-07-17T10:24:51;27.10;33.30
7688;DHT22;30781;48.154;11.554;2022-07-17T10:27:23;26.90;33.50
7688;DHT22;30781;48.154;11.554;2022-07-17T10:30:02;26.70;33.50
7688;DHT22;30781;48.154;11.554;2022-07-17T10:32:30;26.50;33.20
7688;DHT22;30781;48.154;11.554;2022-07-17T10:34:59;26.40;33.30
7688;DHT22;30781;48.154;11.554;2022-07-17T10:37:31;26.30;32.80
7688;DHT22;30781;48.154;11.554;2022-07-17T10:40:04;26.30;32.60
7688;DHT22;30781;48.154;11.554;2022-07-17T10:42:40;26.20;32.90
7688;DHT22;30781;48.154;11.554;2022-07-17T10:45:08;26.20;33.30
7688;DHT22;30781;48.154;11.554;2022-07-17T10:47:47;26.10;33.00
7688;DHT22;30781;48.154;11.554;2022-07-17T10:50:15;26.20;33.10
7688;DHT22;30781;48.154;11.554;2022-07-17T10:52:43;26.20;33.00
7688;DHT22;30781;48.154;11.554;2022-07-17T10:55:22;26.30;33.40
7688;DHT22;30781;48.154;11.554;2022-07-17T10:57:49;26.20;33.20
7688;DHT22;30781;48.154;11.554;2022-07-17T11:00:17;26.20;33.20
7688;DHT22;30781;48.154;11.554;2022-07-17T11:02:44;26.10;33.60
7688;DHT22;30781;48.154;11.554;2022-07-17T11:05:13;26.10;33.80
7688;DHT22;30781;48.154;11.554;2022-07-17T11:07:55;26.20;32.50
7688;DHT22;30781;48.154;11.554;2022-07-17T11:10:26;26.30;32.20
7688;DHT22;30781;48.154;11.554;2022-07-17T11:12:55;26.30;32.20
7688;DHT22;30781;48.154;11.554;2022-07-17T11:15:22;26.30;32.10
7688;DHT22;30781;48.154;11.554;2022-07-17T11:17:50;26.30;32.30
7688;DHT22;30781;48.154;11.554;2022-07-17T11:20:18;26.30;31.90
7688;DHT22;30781;48.154;11.554;2022-07-17T11:22:45;26.30;31.30
7688;DHT22;30781;48.154;11.554;2022-07-17T11:25:12;26.40;30.70
7688;DHT22;30781;48.154;11.554;2022-07-17T11:27:41;26.40;30.80
7688;DHT22;30781;48.154;11.554;2022-07-17T11:30:12;26.40;30.20
7688;DHT22;30781;48.154;11.554;2022-07-17T11:32:41;26.30;30.00
7688;DHT22;30781;48.154;11.554;2022-07-17T11:35:17;26.30;30.20
7688;DHT22;30781;48.154;11.554;2022-07-17T11:37:45;26.30;30.00
7688;DHT22;30781;48.154;11.554;2022-07-17T11:40:15;26.30;30.40
7688;DHT22;30781;48.154;11.554;2022-07-17T11:42:44;26.30;31.30
7688;DHT22;30781;48.154;11.554;2022-07-17T11:45:12;26.20;31.50
7688;DHT22;30781;48.154;11.554;2022-07-17T11:47:39;26.30;31.40
7688;DHT22;30781;48.154;11.554;2022-07-17T11:50:13;26.30;31.30
7688;DHT22;30781;48.154;11.554;2022-07-17T11:52:42;26.40;31.40
7688;DHT22;30781;48.154;11.554;2022-07-17T11:55:10;26.50;31.50
7688;DHT22;30781;48.154;11.554;2022-07-17T11:57:45;26.60;31.10
7688;DHT22;30781;48.154;11.554;2022-07-17T12:00:14;26.60;30.80
7688;DHT22;30781;48.154;11.554;2022-07-17T12:02:42;26.60;30.60
7688;DHT22;30781;48.154;11.554;2022-07-17T12:05:10;26.50;30.70
7688;DHT22;30781;48.154;11.554;2022-07-17T12:07:42;26.50;30.50
7688;DHT22;30781;48.154;11.554;2022-07-17T12:10:14;26.50;30.40
7688;DHT22;30781;48.154;11.554;2022-07-17T12:12:56;26.50;30.20
7688;DHT22;30781;48.154;11.554;2022-07-17T12:15:35;26.50;29.90
7688;DHT22;30781;48.154;11.554;2022-07-17T12:18:03;26.50;30.10
7688;DHT22;30781;48.154;11.554;2022-07-17T12:20:41;26.40;29.90
7688;DHT22;30781;48.154;11.554;2022-07-17T12:23:09;26.40;29.70
7688;DHT22;30781;48.154;11.554;2022-07-17T12:25:36;26.40;30.00
7688;DHT22;30781;48.154;11.554;2022-07-17T12:28:05;26.40;30.20
7688;DHT22;30781;48.154;11.554;2022-07-17T12:30:33;26.50;30.10
7688;DHT22;30781;48.154;11.554;2022-07-17T12:33:00;26.40;30.00
7688;DHT22;30781;48.154;11.554;2022-07-17T12:35:28;26.50;30.10
7688;DHT22;30781;48.154;11.554;2022-07-17T12:37:55;26.50;30.30
7688;DHT22;30781;48.154;11.554;2022-07-17T12:40:22;26.50;30.00
7688;DHT22;30781;48.154;11.554;2022-07-17T12:42:50;26.50;30.30
7688;DHT22;30781;48.154;11.554;2022-07-17T12:45:19;26.50;30.10
7688;DHT22;30781;48.154;11.554;2022-07-17T12:47:46;26.50;30.00
7688;DHT22;30781;48.154;11.554;2022-07-17T12:50:13;26.50;30.00
7688;DHT22;30781;48.154;11.554;2022-07-17T12:52:41;26.50;29.50
7688;DHT22;30781;48.154;11.554;2022-07-17T12:55:09;26.60;29.60
7688;DHT22;30781;48.154;11.554;2022-07-17T12:57:37;26.60;29.70
7688;DHT22;30781;48.154;11.554;2022-07-17T13:00:05;26.60;29.90
7688;DHT22;30781;48.154;11.554;2022-07-17T13:02:34;26.60;29.80
7688;DHT22;30781;48.154;11.554;2022-07-17T13:05:02;26.70;29.70
7688;DHT22;30781;48.154;11.554;2022-07-17T13:07:29;26.70;29.70
7688;DHT22;30781;48.154;11.554;2022-07-17T13:09:57;26.80;29.50
7688;DHT22;30781;48.154;11.554;2022-07-17T13:12:24;26.80;29.30
7688;DHT22;30781;48.154;11.554;2022-07-17T13:14:51;26.80;29.50
7688;DHT22;30781;48.154;11.554;2022-07-17T13:17:19;26.80;29.50
7688;DHT22;30781;48.154;11.554;2022-07-17T13:19:47;26.80;29.30
7688;DHT22;30781;48.154;11.554;2022-07-17T13:22:15;26.90;29.20
7688;DHT22;30781;48.154;11.554;2022-07-17T13:24:42;26.90;29.10
7688;DHT22;30781;48.154;11.554;2022-07-17T13:27:10;27.00;29.20
7688;DHT22;30781;48.154;11.554;2022-07-17T13:29:37;27.00;29.20
7688;DHT22;30781;48.154;11.554;2022-07-17T13:32:05;27.00;29.00
7688;DHT22;30781;48.154;11.554;2022-07-17T13:34:32;27.00;29.00
7688;DHT22;30781;48.154;11.554;2022-07-17T13:37:01;27.10;29.00
7688;DHT22;30781;48.154;11.554;2022-07-17T13:39:29;27.10;28.80
7688;DHT22;30781;48.154;11.554;2022-07-17T13:41:56;27.10;28.80
7688;DHT22;30781;48.154;11.554;2022-07-17T13:44:24;27.00;28.80
7688;DHT22;30781;48.154;11.554;2022-07-17T13:46:51;27.10;28.80
7688;DHT22;30781;48.154;11.554;2022-07-17T13:49:18;27.10;28.90
7688;DHT22;30781;48.154;11.554;2022-07-17T13:51:47;27.10;28.90
7688;DHT22;30781;48.154;11.554;2022-07-17T13:54:16;27.00;28.80
7688;DHT22;30781;48.154;11.554;2022-07-17T13:56:43;27.10;29.00
7688;DHT22;30781;48.154;11.554;2022-07-17T13:59:11;27.10;28.80
7688;DHT22;30781;48.154;11.554;2022-07-17T14:01:38;27.10;29.10
7688;DHT22;30781;48.154;11.554;2022-07-17T14:04:05;27.10;29.30
7688;DHT22;30781;48.154;11.554;2022-07-17T14:06:33;27.10;29.60
7688;DHT22;30781;48.154;11.554;2022-07-17T14:09:00;27.10;30.00
7688;DHT22;30781;48.154;11.554;2022-07-17T14:11:29;27.10;30.40
7688;DHT22;30781;48.154;11.554;2022-07-17T14:13:56;27.10;29.90
7688;DHT22;30781;48.154;11.554;2022-07-17T14:16:24;27.20;30.00
7688;DHT22;30781;48.154;11.554;2022-07-17T14:18:51;27.20;30.10
7688;DHT22;30781;48.154;11.554;2022-07-17T14:21:29;27.20;29.90
7688;DHT22;30781;48.154;11.554;2022-07-17T14:23:57;27.20;29.60
7688;DHT22;30781;48.154;11.554;2022-07-17T14:26:24;27.20;30.00
7688;DHT22;30781;48.154;11.554;2022-07-17T14:28:53;27.20;29.80
7688;DHT22;30781;48.154;11.554;2022-07-17T14:31:21;27.20;29.60
7688;DHT22;30781;48.154;11.554;2022-07-17T14:33:48;27.20;29.80
7688;DHT22;30781;48.154;11.554;2022-07-17T14:36:15;27.20;29.70
7688;DHT22;30781;48.154;11.554;2022-07-17T14:38:43;27.20;29.60
7688;DHT22;30781;48.154;11.554;2022-07-17T14:41:10;27.20;29.30
7688;DHT22;30781;48.154;11.554;2022-07-17T14:43:38;27.20;29.30
7688;DHT22;30781;48.154;11.554;2022-07-17T14:46:07;27.20;29.30
7688;DHT22;30781;48.154;11.554;2022-07-17T14:48:34;27.30;29.30
7688;DHT22;30781;48.154;11.554;2022-07-17T14:51:02;27.20;29.20
7688;DHT22;30781;48.154;11.554;2022-07-17T14:53:29;27.20;29.30
7688;DHT22;30781;48.154;11.554;2022-07-17T14:55:57;27.20;29.30
7688;DHT22;30781;48.154;11.554;2022-07-17T14:58:24;27.20;29.30
7688;DHT22;30781;48.154;11.554;2022-07-17T15:00:52;27.20;29.50
7688;DHT22;30781;48.154;11.554;2022-07-17T15:03:21;27.20;29.70
7688;DHT22;30781;48.154;11.554;2022-07-17T15:05:48;27.20;29.50
7688;DHT22;30781;48.154;11.554;2022-07-17T15:08:15;27.10;29.60
7688;DHT22;30781;48.154;11.554;2022-07-17T15:10:43;27.00;29.80
7688;DHT22;30781;48.154;11.554;2022-07-17T15:13:10;27.00;29.90
7688;DHT22;30781;48.154;11.554;2022-07-17T15:15:38;27.00;30.00
7688;DHT22;30781;48.154;11.554;2022-07-17T15:18:05;27.10;30.00
7688;DHT22;30781;48.154;11.554;2022-07-17T15:20:34;27.10;30.00
7688;DHT22;30781;48.154;11.554;2022-07-17T15:23:02;27.20;30.10
7688;DHT22;30781;48.154;11.554;2022-07-17T15:25:30;27.20;30.30
7688;DHT22;30781;48.154;11.554;2022-07-17T15:27:57;27.30;30.70
7688;DHT22;30781;48.154;11.554;2022-07-17T15:30:25;27.30;29.80
7688;DHT22;30781;48.154;11.554;2022-07-17T15:32:52;27.30;29.70
7688;DHT22;30781;48.154;11.554;2022-07-17T15:35:20;27.30;29.80
7688;DHT22;30781;48.154;11.554;2022-07-17T15:37:48;27.40;30.00